Medlin's Ranch, Nevada Weather observations

Data are for observation ending at time listed.
 Day   Time    Ave.   Ave.  Ave.  Vector   Max.   Stn.    Total    Solar   Ave.  
  of    of     Air    Rel.  Wind   Wind    Wind   Baro.  Precip.   Rad.    Soil  
Year   Day     Temp.  Hum.  Speed  Dir.    Gust   Pres.                    Temp. 
2016   (PST)    F      %     mph   deg.    mph     mb.     in.     W/m2     F   
------------------------------------------------------------------------------
 344    4:00   29.5    48    4.5   272      7.2    870     0.00       0    36.8
 344    5:00   29.1    50    1.2   185      4.6    870     0.00       0    36.6
 344    6:00   30.7    51    1.9   293      3.6    870     0.00       0    36.5
 344    7:00   34.0    46    0.7   187      3.1    870     0.00       0    36.6
 344    8:00   33.6    47    1.3    86      3.9    870     0.00      20    36.8
 344    9:00   36.5    38    0.9   357      2.4    871     0.00      71    37.1
 344   10:00   39.7    30    1.7   285      4.1    871     0.00     124    37.7
 344   11:00   42.1    30    1.6    81      4.2    871     0.00     178    38.5
 344   12:00   43.8    32    1.6   121      4.0    870     0.00     181    39.5
 344   13:00   45.9    32    1.4   152      4.0    870     0.00     319    40.5
 344   14:00   47.0    41    1.4   164      3.7    869     0.00     207    41.7
 344   15:00   47.4    45    1.7   162      4.2    869     0.00     164    42.7
 344   16:00   47.0    44    1.6   172      4.8    869     0.00      78    43.2
 344   17:00   42.6    46    0.7   117      2.6    869     0.00       6    43.2
 344   18:00   39.4    38    1.7   166      3.8    869     0.00       0    42.7
 344   19:00   35.6    50    2.8   293      5.0    868     0.00       0    42.0
 344   20:00   33.8    59    3.5   293      5.3    868     0.00       0    41.4
 344   21:00   33.1    62    3.9   270      5.4    868     0.00       0    40.7
 344   22:00   29.3    66    2.7   301      4.7    868     0.00       0    40.0
 344   23:00   29.2    66    4.1   279      6.6    868     0.00       0    39.3
 345    0:00   30.1    65    4.4   261      6.4    868     0.00       0    38.7
 345    1:00   28.1    69    2.4   264      6.1    868     0.00       0    38.2
 345    2:00   27.1    72    2.4   300      5.4    868     0.00       0    37.7
 345    3:00   30.6    68    3.3   300      7.1    867     0.00       0    37.3

Return to Medlin's Ranch, Nevada graphs page.


Western Regional Climate Center,wrcc@dri.edu